sensor_id;sensor_type;location;lat;lon;timestamp;P1;durP1;ratioP1;P2;durP2;ratioP2
69401;SDS011;56589;51.992;5.924;2024-03-02T00:00:24;2.67;;;0.90;;
69401;SDS011;56589;51.992;5.924;2024-03-02T00:02:50;2.15;;;1.00;;
69401;SDS011;56589;51.992;5.924;2024-03-02T00:05:16;4.07;;;1.25;;
69401;SDS011;56589;51.992;5.924;2024-03-02T00:07:45;2.15;;;0.80;;
69401;SDS011;56589;51.992;5.924;2024-03-02T00:10:21;1.10;;;0.80;;
69401;SDS011;56589;51.992;5.924;2024-03-02T00:15:25;2.28;;;1.00;;
69401;SDS011;56589;51.992;5.924;2024-03-02T00:18:06;3.55;;;1.13;;
69401;SDS011;56589;51.992;5.924;2024-03-02T00:20:33;2.40;;;1.20;;
69401;SDS011;56589;51.992;5.924;2024-03-02T00:23:00;2.35;;;0.98;;
69401;SDS011;56589;51.992;5.924;2024-03-02T00:25:37;3.38;;;1.05;;
69401;SDS011;56589;51.992;5.924;2024-03-02T00:28:04;2.05;;;1.20;;
69401;SDS011;56589;51.992;5.924;2024-03-02T00:30:37;1.75;;;0.90;;
69401;SDS011;56589;51.992;5.924;2024-03-02T00:33:17;3.08;;;1.35;;
69401;SDS011;56589;51.992;5.924;2024-03-02T00:35:44;4.00;;;1.05;;
69401;SDS011;56589;51.992;5.924;2024-03-02T00:38:11;2.35;;;1.00;;
69401;SDS011;56589;51.992;5.924;2024-03-02T00:40:41;3.45;;;1.20;;
69401;SDS011;56589;51.992;5.924;2024-03-02T00:43:09;8.23;;;1.67;;
69401;SDS011;56589;51.992;5.924;2024-03-02T00:46:03;2.40;;;1.00;;
69401;SDS011;56589;51.992;5.924;2024-03-02T00:48:29;1.42;;;0.80;;
69401;SDS011;56589;51.992;5.924;2024-03-02T00:50:56;2.58;;;0.93;;
69401;SDS011;56589;51.992;5.924;2024-03-02T00:53:23;0.70;;;0.63;;
69401;SDS011;56589;51.992;5.924;2024-03-02T00:55:54;1.95;;;0.88;;
69401;SDS011;56589;51.992;5.924;2024-03-02T00:58:20;1.35;;;0.95;;
69401;SDS011;56589;51.992;5.924;2024-03-02T01:00:46;2.55;;;1.02;;
69401;SDS011;56589;51.992;5.924;2024-03-02T01:03:12;3.25;;;0.90;;
69401;SDS011;56589;51.992;5.924;2024-03-02T01:05:40;2.85;;;1.00;;
69401;SDS011;56589;51.992;5.924;2024-03-02T01:08:06;2.38;;;0.77;;
69401;SDS011;56589;51.992;5.924;2024-03-02T01:10:32;2.30;;;1.08;;
69401;SDS011;56589;51.992;5.924;2024-03-02T01:13:01;3.10;;;1.10;;
69401;SDS011;56589;51.992;5.924;2024-03-02T01:15:27;2.25;;;1.20;;
69401;SDS011;56589;51.992;5.924;2024-03-02T01:17:53;3.10;;;1.20;;
69401;SDS011;56589;51.992;5.924;2024-03-02T01:20:18;2.58;;;1.10;;
69401;SDS011;56589;51.992;5.924;2024-03-02T01:22:44;2.53;;;1.13;;
69401;SDS011;56589;51.992;5.924;2024-03-02T01:25:10;1.73;;;0.85;;
69401;SDS011;56589;51.992;5.924;2024-03-02T01:27:36;1.10;;;0.77;;
69401;SDS011;56589;51.992;5.924;2024-03-02T01:30:05;6.03;;;1.40;;
69401;SDS011;56589;51.992;5.924;2024-03-02T01:32:32;1.23;;;0.70;;
69401;SDS011;56589;51.992;5.924;2024-03-02T01:34:58;2.15;;;0.65;;
69401;SDS011;56589;51.992;5.924;2024-03-02T01:37:24;3.92;;;0.88;;
69401;SDS011;56589;51.992;5.924;2024-03-02T01:39:50;1.67;;;0.70;;
69401;SDS011;56589;51.992;5.924;2024-03-02T01:42:16;3.13;;;0.82;;
69401;SDS011;56589;51.992;5.924;2024-03-02T01:44:41;1.52;;;0.55;;
69401;SDS011;56589;51.992;5.924;2024-03-02T01:47:10;2.35;;;0.60;;
69401;SDS011;56589;51.992;5.924;2024-03-02T01:49:36;1.17;;;0.80;;
69401;SDS011;56589;51.992;5.924;2024-03-02T01:52:02;3.85;;;0.80;;
69401;SDS011;56589;51.992;5.924;2024-03-02T01:54:28;1.15;;;0.43;;
69401;SDS011;56589;51.992;5.924;2024-03-02T01:56:54;0.57;;;0.30;;
69401;SDS011;56589;51.992;5.924;2024-03-02T01:59:20;1.42;;;0.43;;
69401;SDS011;56589;51.992;5.924;2024-03-02T02:01:46;0.77;;;0.30;;
69401;SDS011;56589;51.992;5.924;2024-03-02T02:04:14;1.48;;;0.28;;
69401;SDS011;56589;51.992;5.924;2024-03-02T02:06:40;1.67;;;0.40;;
69401;SDS011;56589;51.992;5.924;2024-03-02T02:09:06;0.80;;;0.17;;
69401;SDS011;56589;51.992;5.924;2024-03-02T02:11:32;0.30;;;0.20;;
69401;SDS011;56589;51.992;5.924;2024-03-02T02:13:58;0.20;;;0.10;;
69401;SDS011;56589;51.992;5.924;2024-03-02T02:16:24;0.40;;;0.20;;
69401;SDS011;56589;51.992;5.924;2024-03-02T02:18:50;0.47;;;0.15;;
69401;SDS011;56589;51.992;5.924;2024-03-02T02:23:50;0.55;;;0.22;;
69401;SDS011;56589;51.992;5.924;2024-03-02T02:26:16;0.80;;;0.32;;
69401;SDS011;56589;51.992;5.924;2024-03-02T02:28:42;0.90;;;0.25;;
69401;SDS011;56589;51.992;5.924;2024-03-02T02:31:07;1.85;;;0.28;;
69401;SDS011;56589;51.992;5.924;2024-03-02T02:33:33;0.20;;;0.20;;
69401;SDS011;56589;51.992;5.924;2024-03-02T02:35:59;0.40;;;0.15;;
69401;SDS011;56589;51.992;5.924;2024-03-02T02:38:27;0.98;;;0.30;;
69401;SDS011;56589;51.992;5.924;2024-03-02T02:40:54;0.38;;;0.20;;
69401;SDS011;56589;51.992;5.924;2024-03-02T02:43:20;0.30;;;0.20;;
69401;SDS011;56589;51.992;5.924;2024-03-02T02:45:46;0.88;;;0.40;;
69401;SDS011;56589;51.992;5.924;2024-03-02T02:48:12;0.43;;;0.20;;
69401;SDS011;56589;51.992;5.924;2024-03-02T02:50:37;1.10;;;0.35;;
69401;SDS011;56589;51.992;5.924;2024-03-02T02:53:03;0.77;;;0.20;;
69401;SDS011;56589;51.992;5.924;2024-03-02T02:55:33;0.60;;;0.20;;
69401;SDS011;56589;51.992;5.924;2024-03-02T02:58:00;1.00;;;0.30;;
69401;SDS011;56589;51.992;5.924;2024-03-02T03:00:26;1.45;;;0.20;;
69401;SDS011;56589;51.992;5.924;2024-03-02T03:02:52;0.50;;;0.20;;
69401;SDS011;56589;51.992;5.924;2024-03-02T03:05:18;0.70;;;0.20;;
69401;SDS011;56589;51.992;5.924;2024-03-02T03:07:44;0.10;;;0.10;;
69401;SDS011;56589;51.992;5.924;2024-03-02T03:10:10;1.73;;;0.20;;
69401;SDS011;56589;51.992;5.924;2024-03-02T03:12:39;0.63;;;0.20;;
69401;SDS011;56589;51.992;5.924;2024-03-02T03:15:05;0.17;;;0.17;;
69401;SDS011;56589;51.992;5.924;2024-03-02T03:17:33;0.13;;;0.13;;
69401;SDS011;56589;51.992;5.924;2024-03-02T03:19:59;0.90;;;0.28;;
69401;SDS011;56589;51.992;5.924;2024-03-02T03:22:25;2.25;;;0.30;;
69401;SDS011;56589;51.992;5.924;2024-03-02T03:24:51;0.55;;;0.28;;
69401;SDS011;56589;51.992;5.924;2024-03-02T03:27:17;0.17;;;0.10;;
69401;SDS011;56589;51.992;5.924;2024-03-02T03:29:46;1.65;;;0.30;;
69401;SDS011;56589;51.992;5.924;2024-03-02T03:32:12;0.85;;;0.20;;
69401;SDS011;56589;51.992;5.924;2024-03-02T03:34:38;0.30;;;0.10;;
69401;SDS011;56589;51.992;5.924;2024-03-02T03:37:04;0.90;;;0.20;;
69401;SDS011;56589;51.992;5.924;2024-03-02T03:39:30;1.13;;;0.10;;
69401;SDS011;56589;51.992;5.924;2024-03-02T03:41:56;0.22;;;0.10;;
69401;SDS011;56589;51.992;5.924;2024-03-02T03:44:21;0.75;;;0.30;;
69401;SDS011;56589;51.992;5.924;2024-03-02T03:46:50;0.45;;;0.40;;
69401;SDS011;56589;51.992;5.924;2024-03-02T03:49:16;0.10;;;0.10;;
69401;SDS011;56589;51.992;5.924;2024-03-02T03:51:42;1.75;;;0.20;;
69401;SDS011;56589;51.992;5.924;2024-03-02T03:54:07;0.13;;;0.10;;
69401;SDS011;56589;51.992;5.924;2024-03-02T03:56:33;0.47;;;0.17;;
69401;SDS011;56589;51.992;5.924;2024-03-02T03:58:59;2.40;;;0.95;;
69401;SDS011;56589;51.992;5.924;2024-03-02T04:01:25;0.25;;;0.10;;
69401;SDS011;56589;51.992;5.924;2024-03-02T04:03:53;0.20;;;0.20;;
69401;SDS011;56589;51.992;5.924;2024-03-02T04:06:19;1.50;;;0.35;;
69401;SDS011;56589;51.992;5.924;2024-03-02T04:08:45;0.77;;;0.30;;
69401;SDS011;56589;51.992;5.924;2024-03-02T04:11:11;1.02;;;0.20;;
69401;SDS011;56589;51.992;5.924;2024-03-02T04:13:36;0.38;;;0.20;;
69401;SDS011;56589;51.992;5.924;2024-03-02T04:16:03;0.60;;;0.22;;
69401;SDS011;56589;51.992;5.924;2024-03-02T04:18:29;0.38;;;0.20;;
69401;SDS011;56589;51.992;5.924;2024-03-02T04:20:58;0.30;;;0.20;;
69401;SDS011;56589;51.992;5.924;2024-03-02T04:23:24;0.50;;;0.20;;
69401;SDS011;56589;51.992;5.924;2024-03-02T04:25:50;1.95;;;0.45;;
69401;SDS011;56589;51.992;5.924;2024-03-02T04:28:15;1.00;;;0.20;;
69401;SDS011;56589;51.992;5.924;2024-03-02T04:30:42;1.83;;;0.40;;
69401;SDS011;56589;51.992;5.924;2024-03-02T04:33:08;0.70;;;0.30;;
69401;SDS011;56589;51.992;5.924;2024-03-02T04:35:33;1.00;;;0.30;;
69401;SDS011;56589;51.992;5.924;2024-03-02T04:38:02;0.30;;;0.20;;
69401;SDS011;56589;51.992;5.924;2024-03-02T04:40:28;0.30;;;0.20;;
69401;SDS011;56589;51.992;5.924;2024-03-02T04:42:54;0.30;;;0.20;;
69401;SDS011;56589;51.992;5.924;2024-03-02T04:45:20;0.40;;;0.20;;
69401;SDS011;56589;51.992;5.924;2024-03-02T04:47:46;0.30;;;0.17;;
69401;SDS011;56589;51.992;5.924;2024-03-02T04:50:11;0.68;;;0.40;;
69401;SDS011;56589;51.992;5.924;2024-03-02T04:52:37;1.65;;;0.40;;
69401;SDS011;56589;51.992;5.924;2024-03-02T04:55:06;2.65;;;0.30;;
69401;SDS011;56589;51.992;5.924;2024-03-02T04:57:33;0.55;;;0.40;;
69401;SDS011;56589;51.992;5.924;2024-03-02T04:59:58;1.33;;;0.35;;
69401;SDS011;56589;51.992;5.924;2024-03-02T05:02:25;0.82;;;0.30;;
69401;SDS011;56589;51.992;5.924;2024-03-02T05:04:50;1.13;;;0.90;;
69401;SDS011;56589;51.992;5.924;2024-03-02T05:07:16;3.10;;;0.40;;
69401;SDS011;56589;51.992;5.924;2024-03-02T05:09:42;0.38;;;0.35;;
69401;SDS011;56589;51.992;5.924;2024-03-02T05:12:12;0.70;;;0.30;;
69401;SDS011;56589;51.992;5.924;2024-03-02T05:14:38;0.70;;;0.30;;
69401;SDS011;56589;51.992;5.924;2024-03-02T05:17:04;0.52;;;0.25;;
69401;SDS011;56589;51.992;5.924;2024-03-02T05:19:29;0.98;;;0.30;;
69401;SDS011;56589;51.992;5.924;2024-03-02T05:21:55;2.72;;;0.30;;
69401;SDS011;56589;51.992;5.924;2024-03-02T05:24:22;0.75;;;0.30;;
69401;SDS011;56589;51.992;5.924;2024-03-02T05:26:48;0.73;;;0.30;;
69401;SDS011;56589;51.992;5.924;2024-03-02T05:29:16;1.33;;;0.30;;
69401;SDS011;56589;51.992;5.924;2024-03-02T05:31:42;0.80;;;0.40;;
69401;SDS011;56589;51.992;5.924;2024-03-02T05:34:10;0.70;;;0.30;;
69401;SDS011;56589;51.992;5.924;2024-03-02T05:36:36;1.23;;;0.38;;
69401;SDS011;56589;51.992;5.924;2024-03-02T05:39:02;0.43;;;0.40;;
69401;SDS011;56589;51.992;5.924;2024-03-02T05:41:28;2.30;;;1.20;;
69401;SDS011;56589;51.992;5.924;2024-03-02T05:43:54;2.85;;;1.80;;
69401;SDS011;56589;51.992;5.924;2024-03-02T05:46:22;1.48;;;1.27;;
69401;SDS011;56589;51.992;5.924;2024-03-02T05:48:48;2.08;;;1.20;;
69401;SDS011;56589;51.992;5.924;2024-03-02T05:51:14;0.98;;;0.77;;
69401;SDS011;56589;51.992;5.924;2024-03-02T05:53:42;0.73;;;0.70;;
69401;SDS011;56589;51.992;5.924;2024-03-02T05:56:08;1.70;;;0.52;;
69401;SDS011;56589;51.992;5.924;2024-03-02T05:58:34;0.40;;;0.30;;
69401;SDS011;56589;51.992;5.924;2024-03-02T06:00:59;1.63;;;0.43;;
69401;SDS011;56589;51.992;5.924;2024-03-02T06:03:28;2.53;;;0.60;;
69401;SDS011;56589;51.992;5.924;2024-03-02T06:05:54;0.68;;;0.28;;
69401;SDS011;56589;51.992;5.924;2024-03-02T06:08:20;1.25;;;0.40;;
69401;SDS011;56589;51.992;5.924;2024-03-02T06:10:45;0.90;;;0.30;;
69401;SDS011;56589;51.992;5.924;2024-03-02T06:13:13;0.52;;;0.22;;
69401;SDS011;56589;51.992;5.924;2024-03-02T06:15:39;1.17;;;0.68;;
69401;SDS011;56589;51.992;5.924;2024-03-02T06:18:05;0.30;;;0.10;;
69401;SDS011;56589;51.992;5.924;2024-03-02T06:20:33;1.27;;;0.30;;
69401;SDS011;56589;51.992;5.924;2024-03-02T06:22:59;0.73;;;0.32;;
69401;SDS011;56589;51.992;5.924;2024-03-02T06:25:25;1.73;;;0.30;;
69401;SDS011;56589;51.992;5.924;2024-03-02T06:27:50;2.40;;;0.32;;
69401;SDS011;56589;51.992;5.924;2024-03-02T06:30:16;2.10;;;0.47;;
69401;SDS011;56589;51.992;5.924;2024-03-02T06:32:42;2.15;;;0.40;;
69401;SDS011;56589;51.992;5.924;2024-03-02T06:35:08;1.60;;;0.70;;
69401;SDS011;56589;51.992;5.924;2024-03-02T06:37:37;1.58;;;0.30;;
69401;SDS011;56589;51.992;5.924;2024-03-02T06:40:04;1.33;;;0.30;;
69401;SDS011;56589;51.992;5.924;2024-03-02T06:42:32;1.65;;;0.43;;
69401;SDS011;56589;51.992;5.924;2024-03-02T06:44:58;2.97;;;0.40;;
69401;SDS011;56589;51.992;5.924;2024-03-02T06:47:24;1.83;;;0.40;;
69401;SDS011;56589;51.992;5.924;2024-03-02T06:49:50;1.42;;;0.35;;
69401;SDS011;56589;51.992;5.924;2024-03-02T06:52:15;3.50;;;0.50;;
69401;SDS011;56589;51.992;5.924;2024-03-02T06:54:44;1.02;;;0.40;;
69401;SDS011;56589;51.992;5.924;2024-03-02T06:57:10;2.97;;;0.55;;
69401;SDS011;56589;51.992;5.924;2024-03-02T06:59:35;0.20;;;0.20;;
69401;SDS011;56589;51.992;5.924;2024-03-02T07:02:01;1.38;;;0.50;;
69401;SDS011;56589;51.992;5.924;2024-03-02T07:04:27;2.13;;;0.30;;
69401;SDS011;56589;51.992;5.924;2024-03-02T07:06:53;1.52;;;0.40;;
69401;SDS011;56589;51.992;5.924;2024-03-02T07:09:19;0.32;;;0.20;;
69401;SDS011;56589;51.992;5.924;2024-03-02T07:11:50;2.03;;;0.32;;
69401;SDS011;56589;51.992;5.924;2024-03-02T07:14:16;1.05;;;0.30;;
69401;SDS011;56589;51.992;5.924;2024-03-02T07:16:42;1.30;;;0.30;;
69401;SDS011;56589;51.992;5.924;2024-03-02T07:19:08;1.92;;;0.40;;
69401;SDS011;56589;51.992;5.924;2024-03-02T07:21:34;0.60;;;0.35;;
69401;SDS011;56589;51.992;5.924;2024-03-02T07:24:01;1.55;;;0.47;;
69401;SDS011;56589;51.992;5.924;2024-03-02T07:26:27;0.95;;;0.40;;
69401;SDS011;56589;51.992;5.924;2024-03-02T07:28:56;1.23;;;0.40;;
69401;SDS011;56589;51.992;5.924;2024-03-02T07:31:22;2.67;;;0.50;;
69401;SDS011;56589;51.992;5.924;2024-03-02T07:33:48;2.08;;;0.50;;
69401;SDS011;56589;51.992;5.924;2024-03-02T07:36:14;3.15;;;0.50;;
69401;SDS011;56589;51.992;5.924;2024-03-02T07:38:40;2.83;;;0.50;;
69401;SDS011;56589;51.992;5.924;2024-03-02T07:41:06;2.20;;;0.50;;
69401;SDS011;56589;51.992;5.924;2024-03-02T07:43:37;4.43;;;0.60;;
69401;SDS011;56589;51.992;5.924;2024-03-02T07:46:06;2.33;;;0.35;;
69401;SDS011;56589;51.992;5.924;2024-03-02T07:48:34;2.88;;;0.50;;
69401;SDS011;56589;51.992;5.924;2024-03-02T07:51:00;1.58;;;0.30;;
69401;SDS011;56589;51.992;5.924;2024-03-02T07:53:26;3.10;;;0.50;;
69401;SDS011;56589;51.992;5.924;2024-03-02T07:55:52;1.42;;;0.30;;
69401;SDS011;56589;51.992;5.924;2024-03-02T07:58:18;4.20;;;0.45;;
69401;SDS011;56589;51.992;5.924;2024-03-02T08:00:44;1.05;;;0.52;;
69401;SDS011;56589;51.992;5.924;2024-03-02T08:03:14;0.65;;;0.28;;
69401;SDS011;56589;51.992;5.924;2024-03-02T08:05:41;1.88;;;0.40;;
69401;SDS011;56589;51.992;5.924;2024-03-02T08:08:07;2.05;;;0.30;;
69401;SDS011;56589;51.992;5.924;2024-03-02T08:10:33;1.42;;;0.60;;
69401;SDS011;56589;51.992;5.924;2024-03-02T08:12:59;2.30;;;0.47;;
69401;SDS011;56589;51.992;5.924;2024-03-02T08:15:25;2.17;;;0.57;;
69401;SDS011;56589;51.992;5.924;2024-03-02T08:17:51;2.80;;;0.50;;
69401;SDS011;56589;51.992;5.924;2024-03-02T08:20:20;3.80;;;0.70;;
69401;SDS011;56589;51.992;5.924;2024-03-02T08:22:46;1.75;;;0.30;;
69401;SDS011;56589;51.992;5.924;2024-03-02T08:25:11;1.60;;;0.40;;
69401;SDS011;56589;51.992;5.924;2024-03-02T08:27:37;1.25;;;0.35;;
69401;SDS011;56589;51.992;5.924;2024-03-02T08:30:05;1.80;;;0.50;;
69401;SDS011;56589;51.992;5.924;2024-03-02T08:32:32;1.70;;;0.30;;
69401;SDS011;56589;51.992;5.924;2024-03-02T08:34:58;2.08;;;0.38;;
69401;SDS011;56589;51.992;5.924;2024-03-02T08:37:26;4.38;;;0.68;;
69401;SDS011;56589;51.992;5.924;2024-03-02T08:39:52;1.38;;;0.30;;
69401;SDS011;56589;51.992;5.924;2024-03-02T08:42:19;3.15;;;1.15;;
69401;SDS011;56589;51.992;5.924;2024-03-02T08:44:45;3.80;;;0.63;;
69401;SDS011;56589;51.992;5.924;2024-03-02T08:47:11;2.97;;;0.40;;
69401;SDS011;56589;51.992;5.924;2024-03-02T08:49:37;2.67;;;0.30;;
69401;SDS011;56589;51.992;5.924;2024-03-02T08:52:03;1.17;;;0.32;;
69401;SDS011;56589;51.992;5.924;2024-03-02T08:54:32;4.47;;;0.50;;
69401;SDS011;56589;51.992;5.924;2024-03-02T08:56:58;1.90;;;0.40;;
69401;SDS011;56589;51.992;5.924;2024-03-02T08:59:24;1.38;;;0.47;;
69401;SDS011;56589;51.992;5.924;2024-03-02T09:01:50;3.65;;;0.50;;
69401;SDS011;56589;51.992;5.924;2024-03-02T09:04:16;2.90;;;0.47;;
69401;SDS011;56589;51.992;5.924;2024-03-02T09:06:42;2.90;;;0.57;;
69401;SDS011;56589;51.992;5.924;2024-03-02T09:09:08;5.50;;;0.60;;
69401;SDS011;56589;51.992;5.924;2024-03-02T09:11:36;2.90;;;0.52;;
69401;SDS011;56589;51.992;5.924;2024-03-02T09:14:02;4.32;;;0.90;;
69401;SDS011;56589;51.992;5.924;2024-03-02T09:16:28;4.80;;;0.95;;
69401;SDS011;56589;51.992;5.924;2024-03-02T09:18:54;2.38;;;0.73;;
69401;SDS011;56589;51.992;5.924;2024-03-02T09:21:20;4.65;;;0.70;;
69401;SDS011;56589;51.992;5.924;2024-03-02T09:23:46;6.53;;;0.82;;
69401;SDS011;56589;51.992;5.924;2024-03-02T09:26:12;4.07;;;0.50;;
69401;SDS011;56589;51.992;5.924;2024-03-02T09:28:40;3.47;;;0.57;;
69401;SDS011;56589;51.992;5.924;2024-03-02T09:31:08;1.60;;;0.50;;
69401;SDS011;56589;51.992;5.924;2024-03-02T09:33:34;3.42;;;0.80;;
69401;SDS011;56589;51.992;5.924;2024-03-02T09:36:00;2.60;;;0.50;;
69401;SDS011;56589;51.992;5.924;2024-03-02T09:38:25;6.03;;;1.33;;
69401;SDS011;56589;51.992;5.924;2024-03-02T09:40:51;4.32;;;0.80;;
69401;SDS011;56589;51.992;5.924;2024-03-02T09:43:17;3.90;;;0.70;;
69401;SDS011;56589;51.992;5.924;2024-03-02T09:45:46;1.88;;;0.47;;
69401;SDS011;56589;51.992;5.924;2024-03-02T09:48:13;4.05;;;1.10;;
69401;SDS011;56589;51.992;5.924;2024-03-02T09:50:38;3.80;;;0.55;;
69401;SDS011;56589;51.992;5.924;2024-03-02T09:53:04;2.65;;;0.60;;
69401;SDS011;56589;51.992;5.924;2024-03-02T09:55:33;4.60;;;0.90;;
69401;SDS011;56589;51.992;5.924;2024-03-02T09:57:59;2.50;;;0.70;;
69401;SDS011;56589;51.992;5.924;2024-03-02T10:00:25;3.20;;;0.60;;
69401;SDS011;56589;51.992;5.924;2024-03-02T10:02:53;1.55;;;0.50;;
69401;SDS011;56589;51.992;5.924;2024-03-02T10:05:25;2.58;;;0.60;;
69401;SDS011;56589;51.992;5.924;2024-03-02T10:07:58;4.75;;;0.60;;
69401;SDS011;56589;51.992;5.924;2024-03-02T10:10:26;1.23;;;0.40;;
69401;SDS011;56589;51.992;5.924;2024-03-02T10:13:03;2.53;;;0.50;;
69401;SDS011;56589;51.992;5.924;2024-03-02T10:15:30;5.47;;;0.57;;
69401;SDS011;56589;51.992;5.924;2024-03-02T10:17:58;2.45;;;0.47;;
69401;SDS011;56589;51.992;5.924;2024-03-02T10:20:26;3.53;;;0.75;;
69401;SDS011;56589;51.992;5.924;2024-03-02T10:22:52;2.55;;;0.40;;
69401;SDS011;56589;51.992;5.924;2024-03-02T10:25:30;2.58;;;0.50;;
69401;SDS011;56589;51.992;5.924;2024-03-02T10:27:58;3.67;;;0.52;;
69401;SDS011;56589;51.992;5.924;2024-03-02T10:30:27;3.17;;;0.50;;
69401;SDS011;56589;51.992;5.924;2024-03-02T10:32:54;3.50;;;0.70;;
69401;SDS011;56589;51.992;5.924;2024-03-02T10:35:26;1.60;;;0.35;;
69401;SDS011;56589;51.992;5.924;2024-03-02T10:37:55;2.65;;;0.90;;
69401;SDS011;56589;51.992;5.924;2024-03-02T10:40:21;2.03;;;0.40;;
69401;SDS011;56589;51.992;5.924;2024-03-02T10:42:48;4.07;;;0.70;;
69401;SDS011;56589;51.992;5.924;2024-03-02T10:45:15;2.00;;;0.65;;
69401;SDS011;56589;51.992;5.924;2024-03-02T10:47:42;2.88;;;0.57;;
69401;SDS011;56589;51.992;5.924;2024-03-02T10:50:08;4.05;;;0.60;;
69401;SDS011;56589;51.992;5.924;2024-03-02T10:52:37;2.53;;;0.80;;
69401;SDS011;56589;51.992;5.924;2024-03-02T10:55:04;1.92;;;0.45;;
69401;SDS011;56589;51.992;5.924;2024-03-02T10:57:33;5.05;;;0.60;;
69401;SDS011;56589;51.992;5.924;2024-03-02T11:00:07;4.97;;;0.50;;
69401;SDS011;56589;51.992;5.924;2024-03-02T11:02:38;1.83;;;0.55;;
69401;SDS011;56589;51.992;5.924;2024-03-02T11:05:11;2.47;;;0.47;;
69401;SDS011;56589;51.992;5.924;2024-03-02T11:07:48;2.13;;;0.55;;
69401;SDS011;56589;51.992;5.924;2024-03-02T11:10:15;0.80;;;0.40;;
69401;SDS011;56589;51.992;5.924;2024-03-02T11:12:45;3.78;;;0.40;;
69401;SDS011;56589;51.992;5.924;2024-03-02T11:15:25;2.28;;;0.50;;
69401;SDS011;56589;51.992;5.924;2024-03-02T11:17:52;3.35;;;0.60;;
69401;SDS011;56589;51.992;5.924;2024-03-02T11:20:20;2.72;;;0.60;;
69401;SDS011;56589;51.992;5.924;2024-03-02T11:22:50;1.85;;;0.40;;
69401;SDS011;56589;51.992;5.924;2024-03-02T11:25:22;2.85;;;0.68;;
69401;SDS011;56589;51.992;5.924;2024-03-02T11:27:59;2.55;;;0.70;;
69401;SDS011;56589;51.992;5.924;2024-03-02T11:33:22;1.67;;;0.65;;
69401;SDS011;56589;51.992;5.924;2024-03-02T11:35:50;2.50;;;1.15;;
69401;SDS011;56589;51.992;5.924;2024-03-02T11:38:18;1.60;;;0.82;;
69401;SDS011;56589;51.992;5.924;2024-03-02T11:40:44;4.38;;;0.65;;
69401;SDS011;56589;51.992;5.924;2024-03-02T11:43:11;3.55;;;0.77;;
69401;SDS011;56589;51.992;5.924;2024-03-02T11:45:37;1.15;;;0.35;;
69401;SDS011;56589;51.992;5.924;2024-03-02T11:48:04;1.42;;;0.32;;
69401;SDS011;56589;51.992;5.924;2024-03-02T11:50:34;2.80;;;0.50;;
69401;SDS011;56589;51.992;5.924;2024-03-02T11:53:05;1.20;;;0.52;;
69401;SDS011;56589;51.992;5.924;2024-03-02T11:55:35;2.35;;;0.50;;
69401;SDS011;56589;51.992;5.924;2024-03-02T11:58:03;2.08;;;0.40;;
69401;SDS011;56589;51.992;5.924;2024-03-02T12:00:29;2.50;;;0.30;;
69401;SDS011;56589;51.992;5.924;2024-03-02T12:03:00;2.28;;;0.60;;
69401;SDS011;56589;51.992;5.924;2024-03-02T12:07:56;1.25;;;0.40;;
69401;SDS011;56589;51.992;5.924;2024-03-02T12:10:22;1.20;;;0.30;;
69401;SDS011;56589;51.992;5.924;2024-03-02T12:12:57;1.35;;;0.40;;
69401;SDS011;56589;51.992;5.924;2024-03-02T12:15:25;2.15;;;0.60;;
69401;SDS011;56589;51.992;5.924;2024-03-02T12:17:55;5.82;;;0.70;;
69401;SDS011;56589;51.992;5.924;2024-03-02T12:20:21;2.78;;;0.45;;
69401;SDS011;56589;51.992;5.924;2024-03-02T12:22:48;1.67;;;0.40;;
69401;SDS011;56589;51.992;5.924;2024-03-02T12:25:15;1.35;;;0.30;;
69401;SDS011;56589;51.992;5.924;2024-03-02T12:27:41;2.42;;;0.50;;
69401;SDS011;56589;51.992;5.924;2024-03-02T12:30:11;1.95;;;0.65;;
69401;SDS011;56589;51.992;5.924;2024-03-02T12:32:37;1.92;;;0.22;;
69401;SDS011;56589;51.992;5.924;2024-03-02T12:35:04;2.33;;;0.65;;
69401;SDS011;56589;51.992;5.924;2024-03-02T12:37:30;1.23;;;0.50;;
69401;SDS011;56589;51.992;5.924;2024-03-02T12:39:56;3.35;;;0.40;;
69401;SDS011;56589;51.992;5.924;2024-03-02T12:42:23;2.83;;;0.50;;
69401;SDS011;56589;51.992;5.924;2024-03-02T12:44:49;5.10;;;0.95;;
69401;SDS011;56589;51.992;5.924;2024-03-02T12:47:19;1.48;;;0.50;;
69401;SDS011;56589;51.992;5.924;2024-03-02T12:49:45;2.35;;;0.68;;
69401;SDS011;56589;51.992;5.924;2024-03-02T12:52:11;3.60;;;0.60;;
69401;SDS011;56589;51.992;5.924;2024-03-02T12:54:38;1.13;;;0.43;;
69401;SDS011;56589;51.992;5.924;2024-03-02T12:57:04;4.05;;;1.20;;
69401;SDS011;56589;51.992;5.924;2024-03-02T12:59:30;2.92;;;0.63;;
69401;SDS011;56589;51.992;5.924;2024-03-02T13:01:55;3.28;;;0.60;;
69401;SDS011;56589;51.992;5.924;2024-03-02T13:04:24;1.65;;;0.60;;
69401;SDS011;56589;51.992;5.924;2024-03-02T13:06:51;4.45;;;0.60;;
69401;SDS011;56589;51.992;5.924;2024-03-02T13:09:18;1.95;;;0.50;;
69401;SDS011;56589;51.992;5.924;2024-03-02T13:11:44;1.25;;;0.70;;
69401;SDS011;56589;51.992;5.924;2024-03-02T13:14:10;3.10;;;0.63;;
69401;SDS011;56589;51.992;5.924;2024-03-02T13:16:38;1.90;;;0.52;;
69401;SDS011;56589;51.992;5.924;2024-03-02T13:19:04;2.50;;;0.70;;
69401;SDS011;56589;51.992;5.924;2024-03-02T13:21:35;2.88;;;0.95;;
69401;SDS011;56589;51.992;5.924;2024-03-02T13:24:01;3.17;;;1.45;;
69401;SDS011;56589;51.992;5.924;2024-03-02T13:26:27;1.35;;;0.73;;
69401;SDS011;56589;51.992;5.924;2024-03-02T13:28:53;3.22;;;0.80;;
69401;SDS011;56589;51.992;5.924;2024-03-02T13:31:19;1.90;;;0.75;;
69401;SDS011;56589;51.992;5.924;2024-03-02T13:33:45;2.78;;;0.90;;
69401;SDS011;56589;51.992;5.924;2024-03-02T13:36:10;1.92;;;0.70;;
69401;SDS011;56589;51.992;5.924;2024-03-02T13:38:40;2.45;;;0.60;;
69401;SDS011;56589;51.992;5.924;2024-03-02T13:41:06;2.13;;;0.88;;
69401;SDS011;56589;51.992;5.924;2024-03-02T13:43:32;2.30;;;1.00;;
69401;SDS011;56589;51.992;5.924;2024-03-02T13:45:58;2.90;;;0.75;;
69401;SDS011;56589;51.992;5.924;2024-03-02T13:48:23;4.38;;;1.10;;
69401;SDS011;56589;51.992;5.924;2024-03-02T13:50:49;2.05;;;0.80;;
69401;SDS011;56589;51.992;5.924;2024-03-02T13:53:15;4.68;;;0.70;;
69401;SDS011;56589;51.992;5.924;2024-03-02T13:55:43;2.53;;;0.63;;
69401;SDS011;56589;51.992;5.924;2024-03-02T13:58:10;2.75;;;0.63;;
69401;SDS011;56589;51.992;5.924;2024-03-02T14:00:36;2.25;;;0.73;;
69401;SDS011;56589;51.992;5.924;2024-03-02T14:03:03;1.55;;;0.60;;
69401;SDS011;56589;51.992;5.924;2024-03-02T14:05:31;3.17;;;0.50;;
69401;SDS011;56589;51.992;5.924;2024-03-02T14:07:57;1.63;;;0.60;;
69401;SDS011;56589;51.992;5.924;2024-03-02T14:10:23;1.33;;;0.40;;
69401;SDS011;56589;51.992;5.924;2024-03-02T14:12:52;3.00;;;1.00;;
69401;SDS011;56589;51.992;5.924;2024-03-02T14:15:17;2.47;;;0.50;;
69401;SDS011;56589;51.992;5.924;2024-03-02T14:17:43;1.73;;;0.70;;
69401;SDS011;56589;51.992;5.924;2024-03-02T14:20:10;2.67;;;0.55;;
69401;SDS011;56589;51.992;5.924;2024-03-02T14:22:36;2.40;;;0.60;;
69401;SDS011;56589;51.992;5.924;2024-03-02T14:25:02;4.30;;;0.70;;
69401;SDS011;56589;51.992;5.924;2024-03-02T14:27:28;2.97;;;0.68;;
69401;SDS011;56589;51.992;5.924;2024-03-02T14:29:57;1.70;;;0.52;;
69401;SDS011;56589;51.992;5.924;2024-03-02T14:32:23;3.90;;;0.85;;
69401;SDS011;56589;51.992;5.924;2024-03-02T14:34:49;3.72;;;0.50;;
69401;SDS011;56589;51.992;5.924;2024-03-02T14:37:15;3.13;;;0.60;;
69401;SDS011;56589;51.992;5.924;2024-03-02T14:39:41;2.05;;;0.75;;
69401;SDS011;56589;51.992;5.924;2024-03-02T14:42:07;3.33;;;0.77;;
69401;SDS011;56589;51.992;5.924;2024-03-02T14:44:33;5.57;;;0.60;;
69401;SDS011;56589;51.992;5.924;2024-03-02T14:47:01;6.30;;;0.60;;
69401;SDS011;56589;51.992;5.924;2024-03-02T14:49:28;2.58;;;0.60;;
69401;SDS011;56589;51.992;5.924;2024-03-02T14:51:53;3.05;;;0.70;;
69401;SDS011;56589;51.992;5.924;2024-03-02T14:54:19;3.38;;;0.70;;
69401;SDS011;56589;51.992;5.924;2024-03-02T14:56:45;1.30;;;0.60;;